»·PEaware :: N256Z KFLG-KTEX

N256Z :: KFLG-KTEX

FLIGHT INFORMATION

Flight Status: Arrived
Operator: Privately registered:
United States
More flights under this callsign
Pilot: Gregory A. (9731)
Aircraft: PIPER PA-46-500TP MALIBU MERIDIAN
(P46T)
More flights by this aircraft type
Origin: KFLG Flagstaff Pulliam
United States
Destination: KTEX Telluride Regl
United States
More flights between these airports :: More routes between these airports
Route: +FLG1 OATES INW J44 RSK
File this flight plan on PilotEdge
Remarks:
Altitude:
(Current/Filed)
270ft
Speed:
(Current/Filed)
260kts
Departed: 20-May-19 03:04 PM
Arrived: 20-May-19 04:21 PM
Distance/Time
Traveled:
248nm/1:17
Distance/Time
To Go:
Arrived

Flight Plot

Page will automatically refresh every two minutes.

Flight plan parsing failed; only flown route is shown


Map Options




Map Legend


Flown Route
Filed Route
Departure Airport
Arrival Airport
Navaid (VOR, NDB)
Fix

Horizontal Profiles

Position Reports

Time Latitude Longitude Heading Altitude Ground
Speed
20-May-19 14:39 35.135999 -111.676231 221 7015ft 0kts
20-May-19 14:40 35.135999 -111.676231 221 7015ft 0kts
20-May-19 14:41 35.135999 -111.676231 221 7015ft 0kts
20-May-19 14:42 35.135999 -111.676231 221 7015ft 0kts
20-May-19 14:43 35.135999 -111.676232 221 7015ft 0kts
20-May-19 14:44 35.135999 -111.676232 221 7015ft 0kts
20-May-19 14:45 35.135999 -111.676232 221 7015ft 0kts
20-May-19 14:46 35.135999 -111.676232 221 7015ft 0kts
20-May-19 14:47 35.135999 -111.676232 221 7015ft 0kts
20-May-19 14:48 35.135999 -111.676232 221 7015ft 0kts
20-May-19 14:49 35.135997 -111.676234 221 7015ft 0kts
20-May-19 14:50 35.135994 -111.676237 221 7015ft 0kts
20-May-19 14:51 35.135992 -111.676239 221 7015ft 0kts
20-May-19 14:52 35.135989 -111.676242 221 7015ft 0kts
20-May-19 14:53 35.135987 -111.676245 221 7015ft 0kts
20-May-19 14:54 35.135984 -111.676247 220 7015ft 0kts
20-May-19 14:55 35.135982 -111.676250 220 7015ft 0kts
20-May-19 14:56 35.135975 -111.676257 220 7015ft 0kts
20-May-19 14:57 35.138804 -111.672528 40 7015ft 30kts
20-May-19 14:58 35.146195 -111.664697 40 7015ft 37kts
20-May-19 14:59 35.149882 -111.660220 153 7015ft 0kts
20-May-19 15:00 35.149879 -111.660219 153 7015ft 0kts
20-May-19 15:01 35.149876 -111.660217 153 7015ft 0kts
20-May-19 15:02 35.148928 -111.660002 219 7015ft 0kts
20-May-19 15:03 35.128638 -111.676949 190 7264ft 187kts
20-May-19 15:04 35.078853 -111.674066 185 9239ft 160kts
20-May-19 15:05 35.032809 -111.686332 192 11089ft 191kts
20-May-19 15:06 34.979670 -111.694804 191 12881ft 178kts
20-May-19 15:07 34.926518 -111.702442 190 13802ft 199kts
20-May-19 15:08 34.869930 -111.701673 149 15270ft 221kts
20-May-19 15:09 34.870952 -111.632884 60 16790ft 227kts
20-May-19 15:10 34.896799 -111.560700 71 18267ft 237kts
20-May-19 15:11 34.915487 -111.484191 74 19940ft 233kts
20-May-19 15:12 34.932202 -111.407311 75 22332ft 233kts
20-May-19 15:13 34.948617 -111.329662 75 24737ft 250kts
20-May-19 15:14 34.966824 -111.241578 74 26629ft 283kts
20-May-19 15:15 34.987387 -111.142981 73 27118ft 306kts
20-May-19 15:16 35.007541 -111.045049 73 27108ft 292kts
20-May-19 15:17 35.028004 -110.947420 73 27104ft 305kts
20-May-19 15:18 35.049771 -110.845782 72 27098ft 310kts
20-May-19 15:19 35.091202 -110.752692 51 27094ft 322kts
20-May-19 15:20 35.144879 -110.663829 48 27093ft 326kts
20-May-19 15:22 35.200180 -110.576507 48 27094ft 322kts
20-May-19 15:23 35.255305 -110.490437 48 27099ft 319kts
20-May-19 15:24 35.310116 -110.404970 48 27104ft 319kts
20-May-19 15:25 35.365081 -110.319222 48 27110ft 319kts
20-May-19 15:26 35.419810 -110.233710 48 27108ft 319kts
20-May-19 15:27 35.474749 -110.147691 48 27114ft 321kts
20-May-19 15:28 35.530120 -110.060829 49 27115ft 324kts
20-May-19 15:29 35.585587 -109.973572 49 27132ft 324kts
20-May-19 15:30 35.641172 -109.885880 49 27141ft 324kts
20-May-19 15:31 35.696510 -109.798367 49 27136ft 324kts
20-May-19 15:32 35.751744 -109.710776 49 27142ft 324kts
20-May-19 15:33 35.807094 -109.622771 49 27147ft 324kts
20-May-19 15:34 35.862244 -109.534852 49 27151ft 325kts
20-May-19 15:35 35.917374 -109.446750 49 27158ft 325kts
20-May-19 15:36 35.972634 -109.358222 49 27161ft 325kts
20-May-19 15:37 36.027640 -109.269914 50 27160ft 324kts
20-May-19 15:38 36.082618 -109.181425 50 27158ft 324kts
20-May-19 15:39 36.137345 -109.093091 50 27155ft 324kts
20-May-19 15:40 36.192018 -109.004622 50 27158ft 324kts
20-May-19 15:41 36.246755 -108.915856 50 27154ft 323kts
20-May-19 15:41 36.292148 -108.842068 50 27149ft 323kts
20-May-19 15:42 36.346585 -108.753377 50 27139ft 323kts
20-May-19 15:44 36.410041 -108.649736 50 27129ft 323kts
20-May-19 15:44 36.455500 -108.575326 51 27120ft 324kts
20-May-19 15:45 36.509992 -108.485995 51 27114ft 323kts
20-May-19 15:47 36.573164 -108.382266 51 27107ft 323kts
20-May-19 15:47 36.618508 -108.307764 51 27104ft 323kts
20-May-19 15:48 36.672133 -108.219746 50 26697ft 310kts
20-May-19 15:49 36.722301 -108.138249 50 25674ft 288kts
20-May-19 15:50 36.790248 -108.095520 9 24678ft 272kts
20-May-19 15:51 36.864458 -108.078333 4 23683ft 271kts
20-May-19 15:52 36.930642 -108.066703 3 23121ft 261kts
20-May-19 15:53 37.001665 -108.056999 354 23124ft 267kts
20-May-19 15:54 37.076391 -108.070166 346 23127ft 270kts
20-May-19 15:55 37.150300 -108.085078 347 23130ft 267kts
20-May-19 15:56 37.223796 -108.099249 347 23139ft 267kts
20-May-19 15:57 37.297326 -108.113218 347 23143ft 267kts
20-May-19 15:58 37.371148 -108.127206 347 23155ft 268kts
20-May-19 15:59 37.444825 -108.141200 347 23161ft 268kts
20-May-19 16:00 37.518807 -108.155250 347 23163ft 268kts
20-May-19 16:01 37.592822 -108.169396 347 21865ft 248kts
20-May-19 16:02 37.657198 -108.181940 347 20657ft 226kts
20-May-19 16:03 37.719210 -108.194218 348 19462ft 225kts
20-May-19 16:04 37.781304 -108.206037 348 18278ft 227kts
20-May-19 16:05 37.844127 -108.218327 348 17093ft 229kts
20-May-19 16:06 37.906217 -108.230363 349 16345ft 215kts
20-May-19 16:07 37.966170 -108.242271 348 16334ft 227kts
20-May-19 16:08 38.027318 -108.254854 348 16314ft 198kts
20-May-19 16:09 38.076175 -108.244576 345 15856ft 186kts
20-May-19 16:10 38.099817 -108.292887 281 14725ft 164kts
20-May-19 16:11 38.072040 -108.315931 144 13526ft 176kts
20-May-19 16:12 38.040936 -108.268140 123 12440ft 172kts
20-May-19 16:13 38.021880 -108.220591 119 12312ft 134kts
20-May-19 16:14 38.004234 -108.180340 121 12350ft 141kts
20-May-19 16:15 37.990681 -108.123722 100 11636ft 188kts
20-May-19 16:16 37.980522 -108.058841 105 11006ft 186kts
20-May-19 16:17 37.970031 -107.998023 104 10508ft 160kts
20-May-19 16:18 37.963672 -107.952912 107 9647ft 130kts
20-May-19 16:19 37.954488 -107.912260 109 9082ft 65kts
20-May-19 16:20 37.953269 -107.901175 13 9082ft 12kts
20-May-19 16:21 37.953804 -107.901118 191 9082ft 1kts
20-May-19 16:22 37.953654 -107.901180 199 9082ft 0kts
20-May-19 16:23 37.953653 -107.901181 199 9082ft 0kts
20-May-19 16:24 37.953814 -107.901107 199 9082ft 2kts
20-May-19 16:25 37.953998 -107.901023 199 9082ft 0kts
20-May-19 16:26 37.953998 -107.901023 199 9082ft 0kts

Navigation Log

Ident Type
Flight plan parsing failed, navigation log unavailable